Time;durP1;ratioP1;P1;durP2;ratioP2;P2;SDS_P1;SDS_P2;PMS_P1;PMS_P2;Temp;Humidity;BMP_temperature;BMP_pressure;BME280_temperature;BME280_humidity;BME280_pressure;Samples;Min_cycle;Max_cycle;Signal;HPM_P1;HPM_P2
2021/12/27 00:01:13;;;;;;;9.90;8.90;;;8.70;99.90;;;;;;5141955;27;20463;-44
2021/12/27 00:03:40;;;;;;;11.33;9.10;;;8.70;99.90;;;;;;5141446;27;20586;-44
2021/12/27 00:06:10;;;;;;;10.47;8.87;;;8.70;99.90;;;;;;5141484;27;20405;-45
2021/12/27 00:08:40;;;;;;;11.73;10.53;;;8.70;99.90;;;;;;5141263;27;20443;-45
2021/12/27 00:11:07;;;;;;;11.03;9.93;;;8.70;99.90;;;;;;5141655;27;20410;-45
2021/12/27 00:13:33;;;;;;;10.87;9.03;;;8.70;99.90;;;;;;5141357;27;20424;-44
2021/12/27 00:15:59;;;;;;;9.93;8.93;;;8.70;99.90;;;;;;5141475;27;20413;-44
2021/12/27 00:18:25;;;;;;;9.97;8.70;;;8.70;99.90;;;;;;5140940;27;20467;-45
2021/12/27 00:20:50;;;;;;;11.23;9.93;;;8.70;99.90;;;;;;5141361;27;20487;-45
2021/12/27 00:23:16;;;;;;;12.10;10.03;;;8.70;99.90;;;;;;5141122;27;20546;-45
2021/12/27 00:25:42;;;;;;;9.87;8.87;;;8.70;99.90;;;;;;5140127;27;20199;-46
2021/12/27 00:28:07;;;;;;;10.63;9.47;;;8.70;99.90;;;;;;5140460;27;20187;-43
2021/12/27 00:30:35;;;;;;;12.47;10.60;;;8.70;99.90;;;;;;5141594;27;20208;-43
2021/12/27 00:33:01;;;;;;;11.50;9.97;;;8.60;99.90;;;;;;5141118;27;20187;-43
2021/12/27 00:35:29;;;;;;;11.47;10.27;;;8.60;99.90;;;;;;5141301;27;20419;-43
2021/12/27 00:37:55;;;;;;;15.33;10.70;;;8.60;99.90;;;;;;5141369;27;20271;-43
2021/12/27 00:40:21;;;;;;;12.13;9.97;;;8.60;99.90;;;;;;5141148;27;20969;-43
2021/12/27 00:42:49;;;;;;;13.40;11.00;;;8.50;99.90;;;;;;5141064;27;20564;-44
2021/12/27 00:45:15;;;;;;;11.50;10.33;;;8.50;99.90;;;;;;5140986;27;20200;-44
2021/12/27 00:47:40;;;;;;;10.70;9.40;;;8.50;99.90;;;;;;5141089;27;20461;-44
2021/12/27 00:50:08;;;;;;;11.20;10.00;;;8.40;99.90;;;;;;5140600;27;20180;-44
2021/12/27 00:52:35;;;;;;;10.50;9.40;;;8.40;99.90;;;;;;5140081;27;20187;-44
2021/12/27 00:55:06;;;;;;;10.53;8.77;;;8.40;99.90;;;;;;5140799;27;20438;-44
2021/12/27 00:57:32;;;;;;;11.03;9.83;;;8.40;99.90;;;;;;5141038;27;20692;-44
2021/12/27 00:59:57;;;;;;;9.43;8.43;;;8.40;99.90;;;;;;5140468;27;20529;-44
2021/12/27 01:02:23;;;;;;;12.60;10.93;;;8.40;99.90;;;;;;5140344;27;20185;-45
2021/12/27 01:04:49;;;;;;;12.97;10.40;;;8.30;99.90;;;;;;5139946;27;20584;-44
2021/12/27 01:07:17;;;;;;;11.90;10.27;;;8.30;99.90;;;;;;5140680;27;20214;-44
2021/12/27 01:10:00;;;;;;;11.17;9.40;;;8.30;99.90;;;;;;5140464;27;20196;-44
2021/12/27 01:15:33;;;;;;;11.73;9.70;;;8.20;99.90;;;;;;5140130;27;20531;-44
2021/12/27 01:17:56;;;;;;;9.50;8.50;;;8.20;99.90;;;;;;5139586;27;20435;-44
2021/12/27 01:20:23;;;;;;;12.33;9.97;;;8.10;99.90;;;;;;5140276;27;20476;-43
2021/12/27 01:22:53;;;;;;;10.50;9.40;;;8.10;99.90;;;;;;5139987;27;20205;-44
2021/12/27 01:25:19;;;;;;;11.30;9.30;;;8.10;99.90;;;;;;5140651;27;20835;-44
2021/12/27 01:27:44;;;;;;;12.20;10.20;;;8.00;99.90;;;;;;5140135;27;20399;-44
2021/12/27 01:30:15;;;;;;;12.67;10.03;;;8.00;99.90;;;;;;5140184;27;20773;-44
2021/12/27 01:32:47;;;;;;;12.70;11.07;;;8.00;99.90;;;;;;5140044;27;20185;-44
2021/12/27 01:35:13;;;;;;;11.80;9.80;;;7.90;99.90;;;;;;5139855;27;20435;-44
2021/12/27 01:37:39;;;;;;;10.77;9.23;;;7.90;99.90;;;;;;5140018;27;20443;-43
2021/12/27 01:40:08;;;;;;;9.63;8.63;;;7.80;99.90;;;;;;5139881;27;20897;-44
2021/12/27 01:42:34;;;;;;;10.27;8.83;;;7.80;99.90;;;;;;5140101;27;20505;-44
2021/12/27 01:44:59;;;;;;;10.27;8.90;;;7.80;99.90;;;;;;5139693;27;20520;-43
2021/12/27 01:47:28;;;;;;;10.27;8.77;;;7.70;99.90;;;;;;5139401;27;20258;-44
2021/12/27 01:49:53;;;;;;;9.77;8.77;;;7.70;99.90;;;;;;5139810;27;20190;-44
2021/12/27 01:52:22;;;;;;;12.20;10.50;;;7.70;99.90;;;;;;5140361;27;20409;-44
2021/12/27 01:54:50;;;;;;;10.90;9.30;;;7.70;99.90;;;;;;5140188;27;20190;-45
2021/12/27 01:57:16;;;;;;;11.13;9.20;;;7.70;99.90;;;;;;5139431;27;20694;-45
2021/12/27 01:59:41;;;;;;;10.57;9.37;;;7.70;99.90;;;;;;5139132;27;20479;-45
2021/12/27 02:02:07;;;;;;;9.70;8.70;;;7.70;99.90;;;;;;5139751;27;20406;-45
2021/12/27 02:04:33;;;;;;;10.47;8.97;;;7.70;99.90;;;;;;5139250;27;20194;-45
2021/12/27 02:06:58;;;;;;;10.20;9.10;;;7.70;99.90;;;;;;5139404;27;20279;-45
2021/12/27 02:09:34;;;;;;;10.77;9.20;;;7.70;99.90;;;;;;5139318;27;20179;-45
2021/12/27 02:11:59;;;;;;;11.03;8.70;;;7.70;99.90;;;;;;5139417;27;20183;-44
2021/12/27 02:14:25;;;;;;;8.93;8.00;;;7.70;99.90;;;;;;5139102;27;20734;-45
2021/12/27 02:16:51;;;;;;;10.10;9.10;;;7.70;99.90;;;;;;5138868;27;20564;-45
2021/12/27 02:19:16;;;;;;;9.20;8.30;;;7.70;99.90;;;;;;5139109;27;20187;-45
2021/12/27 02:21:44;;;;;;;9.80;8.80;;;7.70;99.90;;;;;;5138456;27;20193;-45
2021/12/27 02:24:11;;;;;;;8.03;7.23;;;7.70;99.90;;;;;;5138683;27;20214;-45
2021/12/27 02:26:37;;;;;;;9.53;8.50;;;7.70;99.90;;;;;;5138971;27;20417;-45
2021/12/27 02:29:02;;;;;;;8.13;7.33;;;7.70;99.90;;;;;;5138704;27;20759;-45
2021/12/27 02:31:28;;;;;;;10.17;9.10;;;7.70;99.90;;;;;;5139420;27;20179;-43
2021/12/27 02:33:54;;;;;;;9.00;7.60;;;7.70;99.90;;;;;;5139140;27;20239;-43
2021/12/27 02:36:24;;;;;;;8.60;7.53;;;7.70;99.90;;;;;;5138813;27;20410;-44
2021/12/27 02:38:49;;;;;;;8.57;7.67;;;7.70;99.90;;;;;;5138839;27;20203;-44
2021/12/27 02:41:20;;;;;;;9.37;7.70;;;7.70;99.90;;;;;;5138773;27;20495;-44
2021/12/27 02:43:46;;;;;;;8.37;7.47;;;7.70;99.90;;;;;;5139015;27;20557;-43
2021/12/27 02:46:14;;;;;;;8.23;7.33;;;7.70;99.90;;;;;;5138788;27;20424;-45
2021/12/27 02:48:46;;;;;;;9.57;8.57;;;7.70;99.90;;;;;;5138565;27;20205;-45
2021/12/27 02:51:13;;;;;;;8.60;7.40;;;7.70;99.90;;;;;;5138853;27;20408;-44
2021/12/27 02:53:39;;;;;;;9.83;8.83;;;7.70;99.90;;;;;;5138502;27;20461;-44
2021/12/27 02:56:06;;;;;;;8.47;7.40;;;7.70;99.90;;;;;;5138978;27;20453;-44
2021/12/27 02:58:33;;;;;;;8.73;7.47;;;7.70;99.90;;;;;;5138642;28;20504;-44
2021/12/27 03:01:07;;;;;;;9.43;8.43;;;7.70;99.90;;;;;;5138672;28;20947;-44
2021/12/27 03:03:33;;;;;;;9.07;7.73;;;7.70;99.90;;;;;;5138622;28;20412;-44
2021/12/27 03:05:59;;;;;;;8.10;7.23;;;7.70;99.90;;;;;;5138439;28;20487;-44
2021/12/27 03:08:26;;;;;;;8.80;7.50;;;7.70;99.90;;;;;;5138271;28;20498;-44
2021/12/27 03:10:57;;;;;;;8.27;7.43;;;7.70;99.90;;;;;;5138634;28;20277;-43
2021/12/27 03:13:26;;;;;;;8.70;7.17;;;7.70;99.90;;;;;;5120483;28;20438;-43
2021/12/27 03:15:57;;;;;;;7.80;7.00;;;7.70;99.90;;;;;;5139178;27;20431;-44
2021/12/27 03:18:23;;;;;;;9.50;7.37;;;7.80;99.90;;;;;;5125087;27;20511;-44
2021/12/27 03:20:50;;;;;;;7.50;6.50;;;7.80;99.90;;;;;;5142682;27;20554;-44
2021/12/27 03:23:15;;;;;;;7.73;6.80;;;7.80;99.90;;;;;;5142630;27;20837;-44
2021/12/27 03:25:41;;;;;;;6.97;5.97;;;7.80;99.90;;;;;;5142656;27;20520;-44
2021/12/27 03:28:07;;;;;;;6.33;5.73;;;7.80;99.90;;;;;;5142237;27;20178;-44
2021/12/27 03:30:34;;;;;;;5.63;5.13;;;7.80;99.90;;;;;;5124421;27;20526;-44
2021/12/27 03:33:00;;;;;;;5.50;5.00;;;7.80;99.90;;;;;;5142362;27;20553;-44
2021/12/27 03:35:28;;;;;;;5.97;5.37;;;7.80;99.90;;;;;;5142475;27;20530;-43
2021/12/27 03:37:56;;;;;;;5.10;4.60;;;7.80;99.90;;;;;;5141834;27;20182;-44
2021/12/27 03:40:22;;;;;;;5.50;5.00;;;7.80;99.90;;;;;;5141960;27;20486;-44
2021/12/27 03:42:52;;;;;;;5.63;5.07;;;7.80;99.90;;;;;;5124244;27;20499;-44
2021/12/27 03:45:20;;;;;;;5.77;5.20;;;7.80;99.90;;;;;;5142310;27;20458;-44
2021/12/27 03:47:46;;;;;;;5.50;4.80;;;7.80;99.90;;;;;;5142381;27;20453;-44
2021/12/27 03:50:12;;;;;;;5.77;5.10;;;7.80;99.90;;;;;;5142043;27;20431;-44
2021/12/27 03:52:38;;;;;;;6.97;5.20;;;7.80;99.90;;;;;;5141962;27;20412;-43
2021/12/27 03:55:06;;;;;;;4.50;3.83;;;7.70;99.90;;;;;;5141437;27;20209;-44
2021/12/27 03:57:34;;;;;;;6.17;5.20;;;7.70;99.90;;;;;;5141733;27;20581;-44
2021/12/27 04:00:27;;;;;;;4.63;4.23;;;7.70;99.90;;;;;;5141696;27;20501;-44
2021/12/27 04:02:55;;;;;;;5.10;4.27;;;7.70;99.90;;;;;;5141571;27;20687;-44
2021/12/27 04:05:21;;;;;;;6.40;4.97;;;7.70;99.90;;;;;;5141605;27;20488;-44
2021/12/27 04:07:56;;;;;;;5.30;4.47;;;7.60;99.90;;;;;;5141206;27;20526;-44
2021/12/27 04:10:22;;;;;;;4.97;4.47;;;7.60;99.90;;;;;;5141138;27;20795;-44
2021/12/27 04:12:50;;;;;;;5.17;4.20;;;7.60;99.90;;;;;;5141583;27;20499;-44
2021/12/27 04:15:15;;;;;;;4.87;4.40;;;7.60;99.90;;;;;;5141557;27;20462;-44
2021/12/27 04:17:41;;;;;;;5.30;4.40;;;7.60;99.90;;;;;;5141004;27;20711;-44
2021/12/27 04:20:07;;;;;;;5.07;4.57;;;7.60;99.90;;;;;;5140454;27;20218;-44
2021/12/27 04:22:33;;;;;;;4.80;4.10;;;7.60;99.90;;;;;;5122121;27;20240;-44
2021/12/27 04:25:05;;;;;;;5.27;3.80;;;7.50;99.90;;;;;;5140032;27;20436;-44
2021/12/27 04:27:31;;;;;;;5.60;4.63;;;7.50;99.90;;;;;;5139016;27;20401;-44
2021/12/27 04:29:57;;;;;;;5.93;4.70;;;7.50;99.90;;;;;;5139553;27;20413;-44
2021/12/27 04:32:22;;;;;;;5.23;4.73;;;7.50;99.90;;;;;;5133080;27;20244;-44
2021/12/27 04:34:48;;;;;;;5.47;4.80;;;7.50;99.90;;;;;;5118365;28;20172;-44
2021/12/27 04:37:14;;;;;;;6.03;5.03;;;7.50;99.90;;;;;;5101783;28;20178;-44
2021/12/27 04:39:39;;;;;;;6.00;5.23;;;7.50;99.90;;;;;;5119656;28;20206;-46
2021/12/27 04:42:07;;;;;;;5.50;4.93;;;7.50;99.90;;;;;;5119393;28;20179;-44
2021/12/27 04:44:33;;;;;;;5.23;4.73;;;7.50;99.90;;;;;;5119214;28;20490;-46
2021/12/27 04:47:02;;;;;;;5.43;4.87;;;7.50;99.90;;;;;;5118702;28;20554;-43
2021/12/27 04:49:29;;;;;;;5.10;4.60;;;7.50;99.90;;;;;;5119524;28;20175;-44
2021/12/27 04:51:55;;;;;;;5.57;4.97;;;7.50;99.90;;;;;;5119145;28;20436;-44
2021/12/27 04:54:21;;;;;;;5.83;5.27;;;7.50;99.90;;;;;;5119449;28;20402;-44
2021/12/27 04:56:47;;;;;;;6.30;5.70;;;7.50;99.90;;;;;;5117247;28;20194;-46
2021/12/27 04:59:13;;;;;;;6.00;5.40;;;7.50;99.90;;;;;;5116846;28;20295;-44
2021/12/27 05:01:39;;;;;;;5.90;5.30;;;7.50;99.90;;;;;;5117521;28;20434;-44
2021/12/27 05:04:04;;;;;;;6.30;5.70;;;7.50;99.90;;;;;;5116382;28;20410;-47
2021/12/27 05:06:30;;;;;;;6.67;6.00;;;7.50;99.90;;;;;;5116090;28;20471;-47
2021/12/27 05:08:56;;;;;;;6.23;5.63;;;7.60;99.90;;;;;;5115436;28;20462;-47
2021/12/27 05:11:21;;;;;;;5.80;5.23;;;7.60;99.90;;;;;;5116594;28;20430;-47
2021/12/27 05:13:50;;;;;;;6.40;5.80;;;7.60;99.90;;;;;;5117526;28;20175;-47
2021/12/27 05:16:15;;;;;;;6.67;6.00;;;7.60;99.90;;;;;;5099367;28;20187;-47
2021/12/27 05:18:41;;;;;;;5.53;4.70;;;7.60;99.90;;;;;;5117632;28;20566;-47
2021/12/27 05:21:07;;;;;;;5.90;5.20;;;7.70;99.90;;;;;;5117892;28;20240;-47
2021/12/27 05:23:33;;;;;;;7.70;4.97;;;7.70;99.90;;;;;;5119403;28;20175;-47
2021/12/27 05:25:59;;;;;;;5.67;5.07;;;7.70;99.90;;;;;;5119644;28;20443;-47
2021/12/27 05:28:25;;;;;;;5.50;5.00;;;7.70;99.90;;;;;;5118580;28;20409;-47
2021/12/27 05:30:51;;;;;;;5.03;4.53;;;7.70;99.90;;;;;;5117662;28;20517;-47
2021/12/27 05:33:18;;;;;;;6.70;5.23;;;7.70;99.90;;;;;;5118229;28;20473;-47
2021/12/27 05:35:43;;;;;;;5.70;5.10;;;7.70;99.90;;;;;;5117826;28;20497;-47
2021/12/27 05:38:09;;;;;;;6.20;4.77;;;7.70;99.90;;;;;;5099742;28;20789;-47
2021/12/27 05:40:35;;;;;;;4.37;3.97;;;7.70;99.90;;;;;;5117600;28;20258;-47
2021/12/27 05:43:01;;;;;;;5.03;4.40;;;7.70;99.90;;;;;;5116955;28;20764;-47
2021/12/27 05:45:27;;;;;;;5.00;4.53;;;7.70;99.90;;;;;;5116944;28;20190;-47
2021/12/27 05:47:53;;;;;;;5.80;4.73;;;7.60;99.90;;;;;;5116832;28;20464;-47
2021/12/27 05:50:19;;;;;;;4.80;4.10;;;7.60;99.90;;;;;;5117249;28;20850;-49
2021/12/27 05:52:45;;;;;;;5.07;4.23;;;7.60;99.90;;;;;;5117419;28;20424;-48
2021/12/27 05:55:14;;;;;;;4.67;4.27;;;7.60;99.90;;;;;;5117316;28;20194;-47
2021/12/27 05:57:40;;;;;;;5.00;4.50;;;7.50;99.90;;;;;;5118662;28;20186;-47
2021/12/27 06:00:10;;;;;;;4.80;4.30;;;7.50;99.90;;;;;;5100703;28;20485;-47
2021/12/27 06:02:36;;;;;;;3.90;3.60;;;7.40;99.90;;;;;;5118940;28;20229;-47
2021/12/27 06:05:03;;;;;;;4.77;4.27;;;7.40;99.90;;;;;;5118708;28;20429;-47
2021/12/27 06:07:31;;;;;;;5.47;4.70;;;7.40;99.90;;;;;;5119032;28;20170;-48
2021/12/27 06:09:57;;;;;;;4.73;4.20;;;7.40;99.90;;;;;;5119197;28;20500;-47
2021/12/27 06:12:23;;;;;;;5.57;5.07;;;7.30;99.90;;;;;;5117402;28;20204;-47
2021/12/27 06:14:49;;;;;;;5.23;4.73;;;7.30;99.90;;;;;;5117015;28;20860;-47
2021/12/27 06:17:14;;;;;;;6.53;4.70;;;7.20;99.90;;;;;;5116105;28;20473;-47
2021/12/27 06:19:40;;;;;;;4.53;4.00;;;7.20;99.90;;;;;;5116074;28;20200;-47
2021/12/27 06:22:06;;;;;;;5.57;4.17;;;7.10;99.90;;;;;;5113096;27;20565;-47
2021/12/27 06:24:31;;;;;;;4.33;3.90;;;7.10;99.90;;;;;;5119471;27;20171;-47
2021/12/27 06:26:57;;;;;;;5.07;4.13;;;7.10;99.90;;;;;;5136643;27;20413;-47
2021/12/27 06:29:23;;;;;;;4.27;3.87;;;7.00;99.80;;;;;;5116969;27;20178;-47
2021/12/27 06:31:48;;;;;;;5.10;4.60;;;7.00;99.80;;;;;;5132257;27;20177;-47
2021/12/27 06:34:14;;;;;;;5.07;4.60;;;7.00;99.80;;;;;;5132705;27;20490;-47
2021/12/27 06:36:40;;;;;;;5.43;4.27;;;6.90;99.70;;;;;;5132114;27;20227;-47
2021/12/27 06:39:06;;;;;;;4.43;4.03;;;6.90;99.70;;;;;;5131443;27;20181;-47
2021/12/27 06:41:35;;;;;;;6.33;4.90;;;6.80;99.60;;;;;;5130501;27;20915;-48
2021/12/27 06:44:01;;;;;;;4.40;4.00;;;6.80;99.60;;;;;;5130808;27;20715;-48
2021/12/27 06:46:32;;;;;;;5.63;4.57;;;6.80;99.60;;;;;;5134156;27;20462;-48
2021/12/27 06:48:58;;;;;;;5.30;4.70;;;6.70;99.60;;;;;;5135469;27;20436;-48
2021/12/27 06:51:23;;;;;;;5.70;4.63;;;6.70;99.60;;;;;;5134998;27;20466;-48
2021/12/27 06:53:49;;;;;;;7.10;5.47;;;6.70;99.70;;;;;;5136095;27;20357;-48
2021/12/27 06:56:15;;;;;;;7.00;5.37;;;6.60;99.70;;;;;;5137798;27;20185;-48
2021/12/27 06:58:41;;;;;;;5.40;4.90;;;6.60;99.80;;;;;;5137926;28;20244;-48
2021/12/27 07:01:07;;;;;;;6.00;5.40;;;6.60;99.90;;;;;;5137675;28;20481;-48
2021/12/27 07:03:35;;;;;;;6.13;5.53;;;6.60;99.90;;;;;;5136930;28;20201;-48
2021/12/27 07:06:01;;;;;;;6.20;4.73;;;6.60;99.90;;;;;;5136071;28;20449;-48
2021/12/27 07:08:27;;;;;;;6.33;5.33;;;6.60;99.90;;;;;;5135690;28;20520;-48
2021/12/27 07:10:53;;;;;;;5.20;4.70;;;6.60;99.90;;;;;;5136584;28;20264;-48
2021/12/27 07:13:19;;;;;;;5.60;5.10;;;6.60;99.90;;;;;;5135997;28;20175;-48
2021/12/27 07:15:46;;;;;;;6.87;6.00;;;6.60;99.90;;;;;;5136616;28;20563;-48
2021/12/27 07:18:16;;;;;;;5.00;4.50;;;6.50;99.80;;;;;;5136993;28;20186;-48
2021/12/27 07:20:42;;;;;;;7.53;5.10;;;6.50;99.80;;;;;;5138251;28;20924;-48
2021/12/27 07:23:08;;;;;;;2.33;2.13;;;6.60;99.80;;;;;;5138671;28;20444;-48
2021/12/27 07:25:36;;;;;;;3.63;2.13;;;9.30;99.90;;;;;;5120699;28;20195;-48
2021/12/27 07:28:02;;;;;;;2.50;1.80;;;11.40;99.90;;;;;;5138250;28;20463;-49
2021/12/27 07:30:31;;;;;;;2.20;1.60;;;12.80;99.90;;;;;;5138158;28;20401;-48
2021/12/27 07:32:57;;;;;;;7.83;2.40;;;13.80;99.90;;;;;;5137648;28;20428;-49
2021/12/27 07:35:24;;;;;;;4.07;2.53;;;14.80;99.00;;;;;;5137882;28;20459;-48
2021/12/27 07:37:50;;;;;;;5.40;2.73;;;15.50;96.30;;;;;;5136908;28;20850;-48
2021/12/27 07:40:18;;;;;;;7.57;2.47;;;16.10;94.70;;;;;;5137608;28;20483;-49
2021/12/27 07:42:44;;;;;;;3.23;2.27;;;16.50;93.20;;;;;;5136817;28;20176;-48
2021/12/27 07:45:10;;;;;;;3.03;2.07;;;16.80;91.90;;;;;;5137657;28;20399;-49
2021/12/27 07:47:36;;;;;;;2.73;2.27;;;17.00;91.20;;;;;;5138494;28;20358;-47
2021/12/27 07:50:05;;;;;;;3.40;2.53;;;17.20;90.00;;;;;;5137641;28;20182;-47
2021/12/27 07:52:31;;;;;;;4.50;3.80;;;16.70;88.80;;;;;;5137801;28;20439;-47
2021/12/27 07:54:57;;;;;;;4.53;4.13;;;16.00;86.50;;;;;;5137755;28;20422;-47
2021/12/27 07:57:23;;;;;;;4.57;4.13;;;15.20;85.30;;;;;;5136315;28;20443;-47
2021/12/27 07:59:49;;;;;;;5.30;4.80;;;14.50;85.60;;;;;;5136169;28;20616;-47
2021/12/27 08:02:15;;;;;;;6.60;4.77;;;13.90;86.60;;;;;;5137373;27;20370;-47
2021/12/27 08:04:44;;;;;;;5.20;4.70;;;13.40;88.00;;;;;;5140168;27;20400;-47
2021/12/27 08:07:10;;;;;;;4.97;4.53;;;13.20;89.60;;;;;;5140436;27;20504;-47
2021/12/27 08:09:36;;;;;;;5.70;4.97;;;13.00;90.20;;;;;;5121462;27;20412;-47
2021/12/27 08:12:03;;;;;;;5.97;5.43;;;13.00;90.60;;;;;;5141109;27;20417;-47
2021/12/27 08:14:28;;;;;;;5.60;5.00;;;13.00;90.70;;;;;;5139805;27;20431;-47
2021/12/27 08:16:54;;;;;;;5.70;4.77;;;13.10;90.80;;;;;;5138599;27;20887;-47
2021/12/27 08:19:19;;;;;;;5.80;5.30;;;13.30;90.80;;;;;;5139189;27;20247;-47
2021/12/27 08:21:45;;;;;;;6.37;5.77;;;13.60;90.50;;;;;;5139437;27;20638;-47
2021/12/27 08:24:11;;;;;;;5.23;4.73;;;13.90;90.10;;;;;;5140429;27;20176;-47
2021/12/27 08:26:37;;;;;;;7.47;2.90;;;14.20;90.00;;;;;;5140328;27;20176;-47
2021/12/27 08:29:05;;;;;;;4.10;2.73;;;15.00;94.20;;;;;;5140576;27;20186;-47
2021/12/27 08:31:31;;;;;;;3.80;2.70;;;15.80;93.30;;;;;;5140744;27;20499;-47
2021/12/27 08:33:57;;;;;;;8.20;2.80;;;16.40;92.20;;;;;;5140159;27;20946;-47
2021/12/27 08:36:22;;;;;;;3.87;3.17;;;17.10;91.30;;;;;;5139388;27;20169;-47
2021/12/27 08:38:51;;;;;;;4.03;3.63;;;17.40;90.40;;;;;;5139426;27;20182;-47
2021/12/27 08:41:19;;;;;;;5.93;5.03;;;17.70;86.70;;;;;;5140923;27;20246;-47
2021/12/27 08:43:44;;;;;;;5.97;5.37;;;17.80;82.60;;;;;;5140467;27;20764;-48
2021/12/27 08:46:10;;;;;;;6.97;4.80;;;18.00;80.70;;;;;;5139896;27;20494;-47
2021/12/27 08:48:36;;;;;;;5.90;5.30;;;18.20;78.10;;;;;;5140132;27;20415;-47
2021/12/27 08:51:03;;;;;;;6.07;5.47;;;18.20;76.70;;;;;;5138922;27;20183;-47
2021/12/27 08:53:30;;;;;;;5.07;4.67;;;18.50;75.30;;;;;;5138719;27;20451;-47
2021/12/27 08:55:56;;;;;;;5.07;4.67;;;18.80;73.80;;;;;;5139178;27;20709;-47
2021/12/27 08:58:23;;;;;;;4.70;4.20;;;19.30;72.00;;;;;;5139615;27;20416;-48
2021/12/27 09:00:49;;;;;;;4.83;4.33;;;19.70;70.00;;;;;;5120495;27;20882;-48
2021/12/27 09:03:14;;;;;;;4.87;4.43;;;20.00;68.10;;;;;;5118361;27;20420;-47
2021/12/27 09:05:41;;;;;;;6.03;5.43;;;20.20;66.40;;;;;;5136118;27;20519;-47
2021/12/27 09:08:08;;;;;;;4.93;4.43;;;20.40;64.80;;;;;;5135467;27;20589;-47
2021/12/27 09:10:34;;;;;;;4.70;4.30;;;20.70;64.10;;;;;;5135560;27;20450;-48
2021/12/27 09:13:00;;;;;;;4.20;3.80;;;20.90;63.30;;;;;;5136611;27;20413;-47
2021/12/27 09:15:27;;;;;;;5.67;4.17;;;21.20;61.00;;;;;;5135572;27;20474;-44
2021/12/27 09:17:53;;;;;;;4.73;3.30;;;21.40;59.90;;;;;;5119476;27;20488;-40
2021/12/27 09:20:18;;;;;;;5.47;4.40;;;21.50;60.30;;;;;;5136644;27;20467;-40
2021/12/27 09:22:44;;;;;;;4.17;3.77;;;21.70;59.60;;;;;;5136986;27;20611;-41
2021/12/27 09:25:10;;;;;;;4.37;3.97;;;22.10;58.60;;;;;;5136514;27;20187;-43
2021/12/27 09:27:36;;;;;;;4.70;4.30;;;22.80;57.70;;;;;;5137955;27;20201;-39
2021/12/27 09:30:05;;;;;;;3.50;3.20;;;23.50;56.10;;;;;;5138092;27;20203;-39
2021/12/27 09:32:31;;;;;;;4.40;4.00;;;23.20;54.90;;;;;;5139479;27;20182;-41
2021/12/27 09:34:56;;;;;;;4.57;4.07;;;22.70;54.60;;;;;;5138630;27;20722;-42
2021/12/27 09:37:22;;;;;;;4.43;3.87;;;22.00;54.50;;;;;;5135065;27;20570;-41
2021/12/27 09:39:53;;;;;;;4.60;4.20;;;21.30;54.80;;;;;;5132561;27;20580;-40
2021/12/27 09:42:23;;;;;;;4.30;3.90;;;20.60;55.20;;;;;;5135299;27;20194;-39
2021/12/27 09:44:49;;;;;;;5.13;4.63;;;19.90;55.80;;;;;;5134211;27;20413;-42
2021/12/27 09:47:15;;;;;;;4.33;3.93;;;19.50;56.20;;;;;;5133411;27;20472;-41
2021/12/27 09:49:41;;;;;;;5.87;4.40;;;19.10;56.60;;;;;;5135212;27;20904;-42
2021/12/27 09:52:07;;;;;;;3.50;3.20;;;18.80;57.00;;;;;;5136890;27;20191;-40
2021/12/27 09:54:33;;;;;;;4.53;3.80;;;18.50;57.40;;;;;;5137363;27;20416;-39
2021/12/27 09:56:58;;;;;;;4.63;4.20;;;18.90;58.00;;;;;;5119308;27;20200;-40
2021/12/27 09:59:24;;;;;;;4.30;3.57;;;20.30;57.70;;;;;;5137543;27;20445;-43
2021/12/27 10:01:53;;;;;;;3.23;2.93;;;22.10;55.50;;;;;;5137765;27;20217;-41
2021/12/27 10:04:20;;;;;;;4.23;3.83;;;24.00;53.10;;;;;;5136840;27;20834;-41
2021/12/27 10:06:47;;;;;;;3.80;3.50;;;25.60;50.40;;;;;;5135673;27;20550;-41
2021/12/27 10:09:13;;;;;;;2.83;2.60;;;27.00;47.60;;;;;;5116273;27;20424;-42
2021/12/27 10:11:42;;;;;;;4.10;3.53;;;28.00;45.10;;;;;;5134865;27;20711;-40
2021/12/27 10:14:09;;;;;;;4.07;3.10;;;28.90;43.00;;;;;;5134476;27;20452;-41
2021/12/27 10:16:44;;;;;;;2.70;2.40;;;29.70;41.30;;;;;;5135541;27;20450;-40
2021/12/27 10:19:11;;;;;;;3.00;2.80;;;30.30;39.90;;;;;;5136593;27;20624;-42
2021/12/27 10:21:41;;;;;;;4.00;3.00;;;30.90;38.80;;;;;;5136950;27;20462;-42
2021/12/27 10:24:09;;;;;;;3.00;2.70;;;31.30;37.50;;;;;;5137642;27;20418;-42
2021/12/27 10:26:35;;;;;;;2.97;2.67;;;31.60;36.70;;;;;;5137755;27;20482;-40
2021/12/27 10:29:19;;;;;;;7.53;3.27;;;31.70;36.20;;;;;;5138245;27;20849;-43
2021/12/27 10:31:59;;;;;;;6.00;3.10;;;31.90;39.60;;;;;;5138988;27;20412;-42
2021/12/27 10:35:03;;;;;;;6.13;3.10;;;32.40;39.40;;;;;;5137852;27;20831;-42
2021/12/27 10:37:32;;;;;;;3.10;2.50;;;32.60;39.60;;;;;;5119960;27;20425;-42
2021/12/27 10:40:10;;;;;;;2.90;2.30;;;32.70;38.10;;;;;;5137619;27;20468;-45
2021/12/27 10:42:44;;;;;;;4.23;2.53;;;32.40;38.10;;;;;;5136647;27;20424;-46
2021/12/27 10:45:19;;;;;;;3.07;2.23;;;32.20;38.50;;;;;;5137663;27;20416;-46
2021/12/27 10:47:57;;;;;;;4.00;2.53;;;32.10;38.60;;;;;;5136137;27;20450;-45
2021/12/27 10:50:35;;;;;;;3.30;2.90;;;32.10;37.50;;;;;;5117133;27;20404;-45
2021/12/27 10:53:05;;;;;;;3.10;2.63;;;32.20;37.40;;;;;;5135579;27;20410;-45
2021/12/27 10:55:38;;;;;;;2.83;1.90;;;32.50;37.40;;;;;;5133411;27;20430;-45
2021/12/27 10:58:27;;;;;;;2.83;2.20;;;32.90;37.20;;;;;;5132761;27;20473;-48
2021/12/27 11:01:11;;;;;;;2.40;2.17;;;33.30;37.00;;;;;;5115225;28;20801;-45
2021/12/27 11:03:39;;;;;;;2.13;1.87;;;33.70;35.80;;;;;;5136131;28;20409;-45
2021/12/27 11:06:07;;;;;;;2.40;2.00;;;33.70;35.20;;;;;;5136446;28;20517;-46
2021/12/27 11:08:34;;;;;;;2.27;1.87;;;34.10;35.20;;;;;;5137144;28;20595;-44
2021/12/27 11:11:03;;;;;;;2.90;2.40;;;34.20;35.10;;;;;;5137621;28;20480;-46
2021/12/27 11:13:30;;;;;;;4.50;2.57;;;33.90;35.10;;;;;;5137249;28;20423;-45
2021/12/27 11:15:56;;;;;;;1.97;1.77;;;33.10;35.40;;;;;;5137946;28;20471;-47
2021/12/27 11:18:22;;;;;;;3.03;1.80;;;32.00;36.40;;;;;;5136874;28;20939;-45
2021/12/27 11:20:54;;;;;;;4.80;1.80;;;31.00;37.60;;;;;;5136794;28;20403;-45
2021/12/27 11:23:21;;;;;;;3.17;2.00;;;30.10;38.90;;;;;;5137379;28;20392;-45
2021/12/27 11:25:47;;;;;;;3.33;2.10;;;29.40;39.40;;;;;;5117030;28;20848;-46
2021/12/27 11:28:40;;;;;;;2.77;2.10;;;28.90;40.00;;;;;;5134190;28;20477;-45
2021/12/27 11:31:08;;;;;;;3.80;2.10;;;28.50;40.60;;;;;;5098715;28;20224;-45
2021/12/27 11:33:57;;;;;;;2.83;2.10;;;28.20;40.70;;;;;;5116769;28;20436;-46
2021/12/27 11:36:28;;;;;;;2.40;2.20;;;28.10;40.70;;;;;;5117003;27;20420;-45
2021/12/27 11:38:56;;;;;;;3.23;1.70;;;28.00;41.00;;;;;;5139142;27;20398;-44
2021/12/27 11:41:43;;;;;;;2.73;2.07;;;27.90;41.20;;;;;;5138780;27;20437;-45
2021/12/27 11:44:17;;;;;;;2.77;2.00;;;27.90;41.50;;;;;;5139002;27;20502;-45
2021/12/27 11:46:49;;;;;;;2.40;1.90;;;27.60;41.50;;;;;;5122234;27;21022;-45
2021/12/27 11:49:16;;;;;;;3.20;1.70;;;27.10;42.20;;;;;;5138931;27;20449;-45
2021/12/27 11:51:43;;;;;;;2.90;1.90;;;26.60;42.80;;;;;;5139736;27;20431;-45
2021/12/27 11:54:29;;;;;;;2.00;1.70;;;26.10;43.50;;;;;;5138893;27;20415;-45
2021/12/27 11:56:55;;;;;;;2.40;2.20;;;25.50;44.00;;;;;;5138453;27;20521;-44
2021/12/27 11:59:29;;;;;;;3.00;1.87;;;25.00;44.50;;;;;;5140246;27;20425;-45
2021/12/27 12:02:00;;;;;;;2.10;1.90;;;24.50;45.10;;;;;;5140067;27;20429;-45
2021/12/27 12:04:45;;;;;;;2.73;2.40;;;24.10;45.60;;;;;;5139788;27;20409;-45
2021/12/27 12:07:33;;;;;;;4.70;2.70;;;23.70;46.00;;;;;;5138438;27;20711;-44
2021/12/27 12:10:17;;;;;;;2.70;2.50;;;23.30;47.20;;;;;;5136401;27;20784;-45
2021/12/27 12:12:43;;;;;;;3.03;2.73;;;22.90;47.60;;;;;;5130903;27;20430;-45
2021/12/27 12:15:09;;;;;;;4.07;3.10;;;22.60;47.10;;;;;;5120911;27;20986;-43
2021/12/27 12:17:53;;;;;;;2.50;2.30;;;22.40;46.30;;;;;;5117560;28;20832;-42
2021/12/27 12:20:25;;;;;;;2.40;2.20;;;22.00;45.80;;;;;;5098808;28;20545;-42
2021/12/27 12:23:05;;;;;;;2.63;2.40;;;21.60;45.70;;;;;;5117575;28;20437;-43
2021/12/27 12:25:31;;;;;;;2.37;2.17;;;21.30;45.60;;;;;;5118959;28;20436;-43
2021/12/27 12:28:05;;;;;;;2.30;2.10;;;21.10;45.80;;;;;;5119223;28;20410;-43
2021/12/27 12:30:40;;;;;;;2.07;1.80;;;20.90;46.00;;;;;;5119583;28;20480;-42
2021/12/27 12:33:14;;;;;;;3.27;2.20;;;20.80;45.90;;;;;;5117791;28;20729;-42
2021/12/27 12:35:55;;;;;;;2.23;1.97;;;20.60;46.00;;;;;;5104526;27;20417;-42
2021/12/27 12:38:30;;;;;;;2.17;1.97;;;20.40;46.30;;;;;;5140889;27;20439;-41
2021/12/27 12:40:57;;;;;;;2.63;1.60;;;20.40;46.30;;;;;;5141241;27;20409;-42
2021/12/27 12:43:50;;;;;;;5.60;2.13;;;20.50;46.70;;;;;;5139500;27;20426;-44
2021/12/27 12:46:38;;;;;;;1.73;1.60;;;20.40;46.80;;;;;;5129722;27;20461;-45
2021/12/27 12:49:10;;;;;;;2.90;2.53;;;20.30;46.40;;;;;;5118248;28;20502;-42
2021/12/27 12:51:35;;;;;;;2.57;2.37;;;20.10;46.10;;;;;;5119499;27;20497;-44
2021/12/27 12:54:06;;;;;;;2.67;2.47;;;19.90;46.40;;;;;;5117239;27;20424;-43
2021/12/27 12:56:36;;;;;;;3.20;2.53;;;19.50;46.40;;;;;;5139324;27;20206;-39
2021/12/27 12:59:05;;;;;;;8.40;2.63;;;19.10;47.50;;;;;;5137368;27;20421;-39